Time;durP1;ratioP1;P1;durP2;ratioP2;P2;SDS_P1;SDS_P2;PMS_P1;PMS_P2;Temp;Humidity;BMP_temperature;BMP_pressure;BME280_temperature;BME280_humidity;BME280_pressure;Samples;Min_cycle;Max_cycle;Signal;HPM_P1;HPM_P2
2023/05/13 00:01:04;;;;;;;8.75;6.18;;;;;;;11.51;100.00;101807.38;5040110;28;20033;-78
2023/05/13 00:03:32;;;;;;;9.95;5.75;;;;;;;11.39;100.00;101811.78;5059032;28;20033;-79
2023/05/13 00:06:02;;;;;;;7.68;5.57;;;;;;;11.35;100.00;101805.91;5011322;28;20393;-78
2023/05/13 00:08:31;;;;;;;10.48;5.20;;;;;;;11.38;100.00;101804.81;5040374;28;20490;-80
2023/05/13 00:10:58;;;;;;;9.05;4.97;;;;;;;11.43;100.00;101799.19;5024709;28;20040;-78
2023/05/13 00:13:26;;;;;;;6.07;4.63;;;;;;;11.50;100.00;101795.94;5028910;28;20037;-78
2023/05/13 00:15:54;;;;;;;8.80;5.05;;;;;;;11.57;100.00;101798.97;5044521;28;20040;-78
2023/05/13 00:18:21;;;;;;;6.25;4.90;;;;;;;11.65;100.00;101796.59;5043916;28;20059;-78
2023/05/13 00:20:49;;;;;;;6.35;4.63;;;;;;;11.71;100.00;101786.47;5047211;28;20036;-78
2023/05/13 00:23:17;;;;;;;7.55;5.82;;;;;;;11.60;100.00;101790.78;5031839;28;20040;-78
2023/05/13 00:25:45;;;;;;;9.00;5.93;;;;;;;11.38;100.00;101784.50;5048677;28;20595;-77
2023/05/13 00:28:15;;;;;;;7.80;5.72;;;;;;;11.29;100.00;101791.31;5049135;28;20052;-78
2023/05/13 00:30:45;;;;;;;6.50;5.20;;;;;;;11.20;100.00;101789.34;5048561;28;20427;-78
2023/05/13 00:33:14;;;;;;;5.28;4.75;;;;;;;11.19;100.00;101795.63;5047682;28;20036;-78
2023/05/13 00:35:44;;;;;;;7.35;5.10;;;;;;;11.18;100.00;101793.91;5042832;28;20021;-78
2023/05/13 00:38:14;;;;;;;13.38;6.72;;;;;;;11.14;100.00;101803.91;5043834;28;20083;-78
2023/05/13 00:40:45;;;;;;;8.45;4.78;;;;;;;11.14;100.00;101800.41;5023134;28;20032;-78
2023/05/13 00:43:14;;;;;;;9.70;5.90;;;;;;;11.17;100.00;101802.81;5048378;28;20040;-78
2023/05/13 00:45:42;;;;;;;11.30;5.40;;;;;;;11.20;100.00;101802.59;5041435;28;20473;-78
2023/05/13 00:48:10;;;;;;;4.93;4.30;;;;;;;11.28;100.00;101791.44;5032037;28;20032;-78
2023/05/13 00:50:41;;;;;;;6.90;4.78;;;;;;;11.27;100.00;101790.59;5043500;28;20030;-78
2023/05/13 00:53:09;;;;;;;8.75;4.57;;;;;;;11.30;100.00;101797.47;5031961;28;20029;-78
2023/05/13 00:55:42;;;;;;;7.88;5.20;;;;;;;11.31;100.00;101793.84;5041932;28;20045;-78
2023/05/13 00:58:12;;;;;;;9.30;4.78;;;;;;;11.33;100.00;101801.66;5055469;28;20037;-78
2023/05/13 01:01:15;;;;;;;9.73;4.68;;;;;;;11.35;100.00;101797.13;5048106;28;20082;-78
2023/05/13 01:04:04;;;;;;;7.10;4.32;;;;;;;11.33;100.00;101799.03;5036438;28;20127;-77
2023/05/13 01:06:39;;;;;;;6.15;4.63;;;;;;;11.36;100.00;101793.50;5046154;28;20078;-78
2023/05/13 01:09:30;;;;;;;6.57;3.95;;;;;;;11.36;100.00;101785.56;5037786;28;20827;-78
2023/05/13 01:12:08;;;;;;;5.88;4.30;;;;;;;11.29;100.00;101787.84;5046175;28;20037;-78
2023/05/13 01:14:49;;;;;;;5.40;4.03;;;;;;;11.18;100.00;101785.97;5034713;28;20366;-78
2023/05/13 01:17:28;;;;;;;7.38;4.20;;;;;;;11.08;100.00;101795.56;5038322;28;20098;-78
2023/05/13 01:19:58;;;;;;;8.05;4.75;;;;;;;11.01;100.00;101792.53;5044069;28;20493;-78
2023/05/13 01:22:26;;;;;;;4.50;4.10;;;;;;;10.86;100.00;101794.53;5042361;28;20474;-78
2023/05/13 01:24:54;;;;;;;5.18;3.60;;;;;;;10.62;100.00;101798.81;5046253;28;20492;-78
2023/05/13 01:27:22;;;;;;;5.28;3.83;;;;;;;10.55;100.00;101789.66;5043038;28;20524;-78
2023/05/13 01:29:54;;;;;;;6.30;4.03;;;;;;;10.46;100.00;101790.28;5035108;28;20017;-78
2023/05/13 01:32:26;;;;;;;5.40;3.70;;;;;;;10.32;100.00;101794.75;5017691;28;20032;-78
2023/05/13 01:34:57;;;;;;;6.20;3.78;;;;;;;10.22;100.00;101788.44;5037095;28;20029;-78
2023/05/13 01:37:29;;;;;;;4.45;3.60;;;;;;;10.19;100.00;101789.50;5030595;28;20082;-78
2023/05/13 01:39:59;;;;;;;7.63;3.95;;;;;;;10.18;100.00;101796.59;5042190;28;20024;-78
2023/05/13 01:42:33;;;;;;;5.43;4.35;;;;;;;10.21;100.00;101792.06;5046699;28;20045;-78
2023/05/13 01:45:03;;;;;;;6.65;3.70;;;;;;;10.18;100.00;101793.09;5042761;28;20032;-78
2023/05/13 01:47:31;;;;;;;7.22;4.80;;;;;;;10.15;100.00;101788.88;5044898;28;20029;-78
2023/05/13 01:49:58;;;;;;;7.60;4.35;;;;;;;10.18;100.00;101783.38;5002791;28;20429;-78
2023/05/13 01:52:27;;;;;;;5.72;4.40;;;;;;;10.18;100.00;101783.38;5041007;28;20712;-78
2023/05/13 01:54:57;;;;;;;7.43;4.45;;;;;;;10.17;100.00;101773.78;5046233;28;20092;-78
2023/05/13 01:57:26;;;;;;;6.32;4.50;;;;;;;10.15;100.00;101780.09;5046049;28;20116;-78
2023/05/13 01:59:53;;;;;;;6.32;4.53;;;;;;;10.13;100.00;101784.66;5046556;28;20025;-78
2023/05/13 02:02:21;;;;;;;6.78;4.22;;;;;;;10.12;100.00;101780.31;5030928;28;20037;-78
2023/05/13 02:04:49;;;;;;;7.55;4.20;;;;;;;10.07;100.00;101783.28;5026584;28;20044;-78
2023/05/13 02:07:18;;;;;;;6.57;4.82;;;;;;;10.06;100.00;101773.69;5021852;28;20034;-78
2023/05/13 02:09:47;;;;;;;8.15;5.63;;;;;;;9.95;100.00;101771.78;5022374;28;20041;-78
2023/05/13 02:12:15;;;;;;;5.47;3.83;;;;;;;9.94;100.00;101785.94;5039967;28;20045;-78
2023/05/13 02:14:44;;;;;;;4.35;3.85;;;;;;;9.86;100.00;101783.00;5011974;28;20034;-78
2023/05/13 02:17:10;;;;;;;10.60;4.70;;;;;;;9.87;100.00;101782.91;5046698;28;20125;-78
2023/05/13 02:19:39;;;;;;;8.65;4.43;;;;;;;9.76;100.00;101788.06;5045803;28;20039;-77
2023/05/13 02:22:08;;;;;;;7.97;4.30;;;;;;;9.79;100.00;101786.03;5054462;28;20051;-77
2023/05/13 02:24:39;;;;;;;7.53;4.85;;;;;;;9.73;100.00;101788.28;5030386;28;20155;-78
2023/05/13 02:27:11;;;;;;;23.92;7.65;;;;;;;9.70;100.00;101784.03;5033229;28;20115;-78
2023/05/13 02:29:40;;;;;;;9.05;5.32;;;;;;;9.63;100.00;101783.63;5049719;28;20036;-78
2023/05/13 02:32:07;;;;;;;9.20;5.55;;;;;;;9.59;100.00;101770.75;5041087;28;20040;-78
2023/05/13 02:34:35;;;;;;;10.65;4.07;;;;;;;9.50;100.00;101774.84;5045570;28;20044;-78
2023/05/13 02:37:04;;;;;;;9.60;4.22;;;;;;;9.45;100.00;101784.84;5033262;28;20048;-78
2023/05/13 02:39:33;;;;;;;11.15;4.25;;;;;;;9.45;100.00;101790.13;5044546;28;20060;-78
2023/05/13 02:42:01;;;;;;;6.25;4.15;;;;;;;9.46;100.00;101790.03;5042078;28;20036;-77
2023/05/13 02:44:32;;;;;;;4.90;4.32;;;;;;;9.39;100.00;101784.34;5043273;28;20033;-77
2023/05/13 02:47:00;;;;;;;6.55;4.40;;;;;;;9.36;100.00;101781.06;4969277;28;21121;-77
2023/05/13 02:49:28;;;;;;;14.43;6.47;;;;;;;9.21;100.00;101789.06;5044203;28;20041;-78
2023/05/13 02:51:56;;;;;;;8.65;5.78;;;;;;;9.05;100.00;101784.78;5008290;28;20029;-78
2023/05/13 02:54:31;;;;;;;9.90;5.55;;;;;;;8.99;100.00;101789.63;5048636;28;20570;-78
2023/05/13 02:57:00;;;;;;;6.80;5.40;;;;;;;9.01;100.00;101793.88;5040723;28;20037;-78
2023/05/13 02:59:27;;;;;;;9.82;5.80;;;;;;;9.02;100.00;101789.41;5042035;28;20673;-78
2023/05/13 03:01:55;;;;;;;9.60;5.65;;;;;;;8.95;100.00;101786.31;5049340;28;20104;-78
2023/05/13 03:04:23;;;;;;;9.35;5.70;;;;;;;8.73;100.00;101786.91;5049528;28;20532;-78
2023/05/13 03:06:51;;;;;;;8.63;5.50;;;;;;;8.51;100.00;101791.72;5049142;28;20107;-77
2023/05/13 03:09:18;;;;;;;4.32;3.92;;;;;;;8.49;100.00;101785.69;5047892;28;20033;-78
2023/05/13 03:11:47;;;;;;;5.25;4.20;;;;;;;8.51;100.00;101786.44;5048709;28;20037;-77
2023/05/13 03:14:14;;;;;;;5.45;3.70;;;;;;;8.54;100.00;101786.28;5048430;28;20040;-78
2023/05/13 03:16:43;;;;;;;11.00;4.03;;;;;;;8.58;100.00;101780.81;5043779;28;20045;-78
2023/05/13 03:19:13;;;;;;;6.32;4.00;;;;;;;8.53;100.00;101768.75;5044780;28;20040;-78
2023/05/13 03:21:41;;;;;;;3.67;3.10;;;;;;;8.49;100.00;101776.94;5019996;28;20036;-77
2023/05/13 03:24:12;;;;;;;5.88;3.83;;;;;;;8.51;100.00;101772.41;5048800;28;20124;-77
2023/05/13 03:26:41;;;;;;;5.05;3.97;;;;;;;8.50;100.00;101766.31;5029817;28;20033;-77
2023/05/13 03:29:08;;;;;;;4.65;4.15;;;;;;;8.56;100.00;101775.63;5047985;28;20548;-78
2023/05/13 03:31:38;;;;;;;4.93;4.00;;;;;;;8.60;100.00;101769.22;5048817;28;20517;-78
2023/05/13 03:34:06;;;;;;;6.10;4.25;;;;;;;8.69;100.00;101760.72;5032975;28;20140;-78
2023/05/13 03:36:35;;;;;;;8.13;3.47;;;;;;;8.72;100.00;101772.88;5032430;28;20044;-78
2023/05/13 03:39:02;;;;;;;5.18;3.33;;;;;;;8.76;100.00;101768.25;5042258;28;20033;-77
2023/05/13 03:41:31;;;;;;;7.70;3.58;;;;;;;8.74;100.00;101771.00;5034803;28;20116;-77
2023/05/13 03:43:59;;;;;;;5.35;3.22;;;;;;;8.72;100.00;101772.00;5049248;28;20515;-78
2023/05/13 03:46:28;;;;;;;7.15;3.83;;;;;;;8.64;100.00;101775.16;5049372;28;20033;-75
2023/05/13 03:48:56;;;;;;;3.85;3.42;;;;;;;8.62;100.00;101780.50;5052645;28;20111;-75
2023/05/13 03:51:26;;;;;;;5.38;3.25;;;;;;;8.56;100.00;101778.28;5037770;28;20039;-77
2023/05/13 03:53:54;;;;;;;4.97;3.40;;;;;;;8.58;100.00;101771.13;5032353;28;20416;-78
2023/05/13 03:56:22;;;;;;;4.75;3.78;;;;;;;8.58;100.00;101773.75;5048795;28;20049;-78
2023/05/13 03:58:51;;;;;;;6.50;4.53;;;;;;;8.59;100.00;101772.81;5047970;28;20037;-77
2023/05/13 04:01:21;;;;;;;5.55;2.90;;;;;;;8.62;100.00;101780.50;5025455;28;20568;-77
2023/05/13 04:03:51;;;;;;;4.40;2.47;;;;;;;8.61;100.00;101783.25;5032375;28;20048;-77
2023/05/13 04:06:18;;;;;;;6.40;2.80;;;;;;;8.53;100.00;101784.56;5044693;28;20029;-78
2023/05/13 04:08:51;;;;;;;3.97;3.10;;;;;;;8.56;100.00;101791.44;5028587;28;20071;-78
2023/05/13 04:11:21;;;;;;;4.75;3.90;;;;;;;8.55;100.00;101781.88;5049514;28;20033;-78
2023/05/13 04:13:51;;;;;;;4.70;2.97;;;;;;;8.53;100.00;101786.34;5047977;28;20075;-78
2023/05/13 04:16:20;;;;;;;5.47;3.15;;;;;;;8.52;100.00;101780.22;5049607;28;20041;-78
2023/05/13 04:18:48;;;;;;;3.33;3.03;;;;;;;8.46;100.00;101767.44;5029941;28;20496;-77
2023/05/13 04:21:17;;;;;;;4.25;3.85;;;;;;;8.41;100.00;101774.78;5044882;28;20053;-78
2023/05/13 04:23:47;;;;;;;6.95;3.05;;;;;;;8.39;100.00;101761.69;5048239;28;20154;-77
2023/05/13 04:26:16;;;;;;;5.68;2.95;;;;;;;8.41;100.00;101765.09;5047777;28;20433;-77
2023/05/13 04:28:44;;;;;;;4.30;3.50;;;;;;;8.41;100.00;101766.88;5047810;28;20112;-78
2023/05/13 04:31:12;;;;;;;5.43;3.30;;;;;;;8.37;100.00;101763.59;5046924;28;20103;-78
2023/05/13 04:33:40;;;;;;;5.18;3.50;;;;;;;8.23;100.00;101767.13;5047863;28;20036;-78
2023/05/13 04:36:08;;;;;;;3.90;2.88;;;;;;;8.11;100.00;101763.44;5043592;28;20519;-77
2023/05/13 04:38:36;;;;;;;5.85;2.70;;;;;;;7.90;100.00;101755.09;5038200;28;20034;-78
2023/05/13 04:41:07;;;;;;;4.25;3.15;;;;;;;7.79;100.00;101751.31;5019448;28;20049;-78
2023/05/13 04:43:41;;;;;;;6.45;3.20;;;;;;;7.67;100.00;101755.56;5030585;28;20040;-77
2023/05/13 04:46:09;;;;;;;4.60;3.03;;;;;;;7.56;100.00;101755.34;5046574;28;20341;-77
2023/05/13 04:48:37;;;;;;;6.72;3.65;;;;;;;7.31;100.00;101752.38;5029779;28;20037;-78
2023/05/13 04:51:04;;;;;;;5.28;3.95;;;;;;;7.11;100.00;101760.59;5037191;28;20029;-78
2023/05/13 04:53:33;;;;;;;4.25;3.85;;;;;;;7.11;100.00;101750.06;5035060;28;20033;-78
2023/05/13 04:56:04;;;;;;;3.85;3.45;;;;;;;7.22;100.00;101757.31;5029422;28;20036;-77
2023/05/13 04:58:31;;;;;;;5.93;3.35;;;;;;;7.32;100.00;101756.72;5030491;28;20028;-78
2023/05/13 05:00:59;;;;;;;4.68;3.10;;;;;;;7.35;100.00;101755.69;5045222;28;20029;-77
2023/05/13 05:03:29;;;;;;;4.10;3.05;;;;;;;7.37;100.00;101756.44;5042320;28;20477;-75
2023/05/13 05:06:00;;;;;;;4.85;3.70;;;;;;;7.37;100.00;101756.44;5043880;28;20063;-75
2023/05/13 05:08:31;;;;;;;6.30;3.00;;;;;;;7.38;100.00;101754.66;5045732;28;20111;-78
2023/05/13 05:11:01;;;;;;;4.07;3.67;;;;;;;7.46;100.00;101752.41;5046569;28;20036;-78
2023/05/13 05:13:33;;;;;;;10.60;5.00;;;;;;;7.31;100.00;101759.44;5030891;28;20036;-78
2023/05/13 05:16:03;;;;;;;188.95;7.18;;;;;;;7.03;100.00;101754.00;5044319;28;20056;-78
2023/05/13 05:18:32;;;;;;;3.58;3.20;;;;;;;6.95;100.00;101762.34;5043212;28;20025;-75
2023/05/13 05:21:00;;;;;;;3.83;2.65;;;;;;;6.95;100.00;101764.09;5029595;28;20061;-75
2023/05/13 05:23:27;;;;;;;3.60;3.08;;;;;;;7.00;100.00;101762.06;5035706;28;20393;-78
2023/05/13 05:25:56;;;;;;;6.18;4.68;;;;;;;7.01;100.00;101760.25;5032108;28;20035;-78
2023/05/13 05:28:24;;;;;;;4.05;3.25;;;;;;;7.09;100.00;101757.22;5030313;28;20064;-78
2023/05/13 05:30:53;;;;;;;3.55;3.15;;;;;;;7.09;100.00;101754.59;5028179;28;20115;-78
2023/05/13 05:33:26;;;;;;;7.00;4.43;;;;;;;6.94;100.00;101752.72;5037270;28;20029;-78
2023/05/13 05:35:54;;;;;;;5.93;3.50;;;;;;;6.88;100.00;101754.88;5045619;28;20025;-78
2023/05/13 05:38:24;;;;;;;9.00;3.20;;;;;;;7.07;100.00;101754.69;5046149;28;20033;-78
2023/05/13 05:40:52;;;;;;;6.05;3.63;;;;;;;7.17;100.00;101754.97;5034055;28;20040;-78
2023/05/13 05:43:20;;;;;;;8.20;3.42;;;;;;;7.31;100.00;101749.75;5029764;28;20059;-78
2023/05/13 05:45:51;;;;;;;6.63;4.03;;;;;;;7.50;100.00;101756.53;5030396;28;20033;-78
2023/05/13 05:48:22;;;;;;;10.45;5.40;;;;;;;7.66;100.00;101766.19;5011805;28;20035;-78
2023/05/13 05:50:54;;;;;;;22.80;5.70;;;;;;;7.82;100.00;101755.53;5039412;28;20029;-78
2023/05/13 05:53:30;;;;;;;19.98;5.18;;;;;;;8.00;100.00;101764.09;5031400;28;20063;-78
2023/05/13 05:56:00;;;;;;;22.48;6.78;;;;;;;8.07;100.00;101757.50;5048645;28;20049;-78
2023/05/13 05:58:28;;;;;;;65.30;7.15;;;;;;;8.18;100.00;101758.66;5043369;28;20037;-75
2023/05/13 06:00:57;;;;;;;222.77;10.10;;;;;;;8.23;100.00;101748.69;5023895;28;20489;-75
2023/05/13 06:03:25;;;;;;;138.10;9.10;;;;;;;8.34;100.00;101757.69;5033701;28;20047;-78
2023/05/13 06:05:54;;;;;;;126.68;8.07;;;;;;;8.36;100.00;101750.53;5047988;28;20033;-78
2023/05/13 06:08:28;;;;;;;169.63;10.07;;;;;;;8.32;100.00;101758.63;5050689;28;20493;-78
2023/05/13 06:10:58;;;;;;;252.35;9.32;;;;;;;8.24;100.00;101755.63;5048329;28;20513;-78
2023/05/13 06:13:25;;;;;;;118.80;7.95;;;;;;;8.26;100.00;101745.00;5016681;28;20071;-78
2023/05/13 06:15:53;;;;;;;59.78;7.43;;;;;;;8.18;100.00;101751.59;5049381;28;20056;-78
2023/05/13 06:18:21;;;;;;;91.35;8.80;;;;;;;8.13;100.00;101756.31;5041732;28;20500;-78
2023/05/13 06:20:49;;;;;;;132.68;8.98;;;;;;;8.13;100.00;101761.56;5028617;28;20141;-78
2023/05/13 06:23:19;;;;;;;104.57;9.05;;;;;;;8.21;100.00;101761.09;5048662;28;20025;-78
2023/05/13 06:25:47;;;;;;;181.15;10.20;;;;;;;8.34;100.00;101769.06;5034521;28;20124;-78
2023/05/13 06:28:16;;;;;;;159.57;9.45;;;;;;;8.44;100.00;101762.25;5033346;28;20397;-78
2023/05/13 06:30:44;;;;;;;57.58;8.48;;;;;;;8.49;100.00;101761.97;5032749;28;20041;-78
2023/05/13 06:33:12;;;;;;;41.22;7.78;;;;;;;8.60;100.00;101766.56;5048492;28;20037;-78
2023/05/13 06:35:40;;;;;;;57.22;8.32;;;;;;;8.64;100.00;101765.47;5031836;28;20037;-78
2023/05/13 06:38:09;;;;;;;160.98;11.07;;;;;;;8.67;100.00;101761.75;5033824;28;20033;-78
2023/05/13 06:40:37;;;;;;;68.25;9.82;;;;;;;8.69;100.00;101768.63;5047386;28;20544;-78
2023/05/13 06:43:08;;;;;;;74.50;9.63;;;;;;;8.86;100.00;101771.97;5032870;28;20033;-78
2023/05/13 06:45:41;;;;;;;151.90;11.50;;;;;;;8.88;100.00;101772.72;5050868;28;20033;-78
2023/05/13 06:48:11;;;;;;;206.02;12.85;;;;;;;8.79;100.00;101768.06;5032070;28;20041;-78
2023/05/13 06:50:40;;;;;;;34.88;11.45;;;;;;;8.78;100.00;101769.84;5030267;28;20029;-78
2023/05/13 06:53:12;;;;;;;34.67;11.23;;;;;;;8.96;100.00;101766.94;5043941;28;20029;-78
2023/05/13 06:55:42;;;;;;;43.33;12.00;;;;;;;9.09;100.00;101772.25;5023609;28;20564;-78
2023/05/13 06:58:11;;;;;;;107.32;12.73;;;;;;;9.15;100.00;101763.06;5050666;28;20033;-78
2023/05/13 07:00:41;;;;;;;138.70;13.00;;;;;;;9.12;100.00;101768.56;5033857;28;20432;-78
2023/05/13 07:03:10;;;;;;;137.38;13.57;;;;;;;9.16;100.00;101767.41;5029487;28;20033;-78
2023/05/13 07:05:40;;;;;;;48.40;12.65;;;;;;;9.27;100.00;101772.81;5048241;28;20025;-78
2023/05/13 07:08:09;;;;;;;31.83;11.27;;;;;;;9.46;100.00;101768.91;5034058;28;20036;-78
2023/05/13 07:10:37;;;;;;;40.28;11.95;;;;;;;9.59;100.00;101771.56;5042990;28;20044;-78
2023/05/13 07:13:05;;;;;;;34.60;11.98;;;;;;;9.73;100.00;101772.44;5049711;28;20031;-78
2023/05/13 07:15:32;;;;;;;18.35;11.90;;;;;;;9.87;100.00;101774.97;5051040;28;20064;-78
2023/05/13 07:18:00;;;;;;;14.23;11.80;;;;;;;9.99;100.00;101767.97;5048608;28;20041;-78
2023/05/13 07:20:29;;;;;;;23.55;11.82;;;;;;;10.13;100.00;101774.09;5046508;28;20057;-78
2023/05/13 07:22:58;;;;;;;18.55;11.68;;;;;;;10.35;100.00;101777.84;5029850;28;20041;-78
2023/05/13 07:25:28;;;;;;;24.27;10.48;;;;;;;10.47;100.00;101773.50;5046751;28;20035;-78
2023/05/13 07:27:57;;;;;;;17.92;12.25;;;;;;;10.78;100.00;101772.09;5044406;28;20029;-78
2023/05/13 07:30:25;;;;;;;14.88;11.60;;;;;;;11.23;100.00;101765.31;5042348;28;20030;-78
2023/05/13 07:32:55;;;;;;;13.52;11.30;;;;;;;11.61;100.00;101771.28;5038932;28;20033;-78
2023/05/13 07:35:24;;;;;;;12.52;11.07;;;;;;;11.96;100.00;101769.50;5043058;28;20073;-78
2023/05/13 07:37:54;;;;;;;14.75;10.73;;;;;;;12.32;100.00;101771.19;5043077;28;20393;-78
2023/05/13 07:40:23;;;;;;;13.20;10.82;;;;;;;12.56;100.00;101771.03;5041255;28;20149;-78
2023/05/13 07:42:51;;;;;;;11.38;10.10;;;;;;;12.72;100.00;101767.97;5036355;28;21071;-78
2023/05/13 07:45:19;;;;;;;12.18;10.13;;;;;;;12.93;100.00;101769.84;5042454;28;20041;-78
2023/05/13 07:47:46;;;;;;;10.98;9.65;;;;;;;13.06;100.00;101768.81;5048381;28;20025;-78
2023/05/13 07:50:15;;;;;;;10.95;9.68;;;;;;;13.22;100.00;101765.72;5026000;28;20043;-78
2023/05/13 07:52:43;;;;;;;11.07;9.95;;;;;;;13.24;100.00;101753.97;5055077;28;20117;-78
2023/05/13 07:55:11;;;;;;;13.32;10.20;;;;;;;13.25;100.00;101754.84;5025043;28;20057;-78
2023/05/13 07:57:41;;;;;;;10.85;9.75;;;;;;;13.28;100.00;101757.22;5026668;28;20178;-78
2023/05/13 08:00:12;;;;;;;11.23;10.02;;;;;;;13.27;100.00;101745.75;5039589;28;20041;-78
2023/05/13 08:02:43;;;;;;;11.88;9.95;;;;;;;13.35;100.00;101753.06;5040240;28;20029;-78
2023/05/13 08:05:13;;;;;;;10.35;8.93;;;;;;;13.37;100.00;101752.94;5041421;28;20037;-78
2023/05/13 08:07:42;;;;;;;9.13;8.02;;;;;;;13.34;100.00;101748.75;5048429;28;20082;-78
2023/05/13 08:10:12;;;;;;;11.13;9.13;;;;;;;13.44;100.00;101750.59;5039767;28;20430;-78
2023/05/13 08:12:43;;;;;;;10.18;7.80;;;;;;;13.50;100.00;101750.97;5036573;28;20112;-78
2023/05/13 08:15:13;;;;;;;9.43;7.93;;;;;;;13.61;100.00;101743.88;5041926;28;20035;-78
2023/05/13 08:17:43;;;;;;;10.07;8.70;;;;;;;13.70;100.00;101745.72;5055475;28;20029;-78
2023/05/13 08:20:14;;;;;;;9.63;8.55;;;;;;;13.75;100.00;101740.88;5038662;28;20036;-78
2023/05/13 08:22:43;;;;;;;8.48;7.32;;;;;;;13.80;100.00;101740.47;5023191;28;20512;-78
2023/05/13 08:25:11;;;;;;;8.52;7.47;;;;;;;13.81;100.00;101739.47;5041611;28;20033;-78
2023/05/13 08:27:39;;;;;;;8.00;6.43;;;;;;;13.85;100.00;101732.94;5039387;28;20040;-78
2023/05/13 08:30:07;;;;;;;8.25;6.07;;;;;;;13.82;100.00;101729.69;5037940;28;20041;-77
2023/05/13 08:32:35;;;;;;;5.55;4.97;;;;;;;13.91;100.00;101728.03;5039754;28;20120;-78
2023/05/13 08:35:03;;;;;;;11.23;8.95;;;;;;;13.99;100.00;101726.41;5039060;28;20068;-77
2023/05/13 08:37:33;;;;;;;9.93;8.27;;;;;;;14.14;100.00;101726.84;5038568;28;20647;-78
2023/05/13 08:40:03;;;;;;;6.80;6.18;;;;;;;14.20;100.00;101720.16;5044794;28;20021;-78
2023/05/13 08:42:33;;;;;;;9.35;6.88;;;;;;;14.24;100.00;101724.22;5047334;28;20223;-78
2023/05/13 08:45:06;;;;;;;5.40;4.90;;;;;;;14.36;100.00;101721.44;5037285;28;20099;-77
2023/05/13 08:47:58;;;;;;;6.05;4.20;;;;;;;14.48;100.00;101727.47;5037990;28;20501;-78
2023/05/13 08:50:29;;;;;;;7.75;5.60;;;;;;;14.55;100.00;101719.78;5041150;28;20068;-78
2023/05/13 08:53:01;;;;;;;5.55;5.00;;;;;;;14.69;100.00;101718.53;5046999;28;20025;-78
2023/05/13 08:55:28;;;;;;;5.72;5.18;;;;;;;14.81;100.00;101713.94;5045233;28;20187;-78
2023/05/13 08:57:57;;;;;;;5.35;3.72;;;;;;;14.92;100.00;101724.44;5043116;28;21142;-78
2023/05/13 09:00:25;;;;;;;2.17;1.98;;;;;;;14.94;100.00;101711.81;5002780;28;20030;-78
2023/05/13 09:02:52;;;;;;;3.30;2.88;;;;;;;15.03;100.00;101712.78;5044081;28;20553;-78
2023/05/13 09:05:21;;;;;;;2.90;2.58;;;;;;;15.12;100.00;101708.41;5043511;28;20043;-78
2023/05/13 09:07:49;;;;;;;2.47;2.28;;;;;;;15.25;100.00;101697.47;5045138;28;20131;-78
2023/05/13 09:10:18;;;;;;;2.90;2.30;;;;;;;15.31;100.00;101701.38;5040882;28;20037;-78
2023/05/13 09:12:55;;;;;;;3.55;1.85;;;;;;;15.46;100.00;101699.94;5039665;28;20040;-77
2023/05/13 09:15:26;;;;;;;3.03;2.00;;;;;;;15.52;100.00;101690.50;5041874;28;20104;-78
2023/05/13 09:17:59;;;;;;;2.60;2.15;;;;;;;15.65;100.00;101687.50;5040183;28;20033;-78
2023/05/13 09:20:29;;;;;;;1.70;1.55;;;;;;;15.71;100.00;101683.41;5022564;28;20039;-78
2023/05/13 09:23:07;;;;;;;1.45;1.17;;;;;;;15.74;100.00;101678.63;5043431;28;20036;-78
2023/05/13 09:25:38;;;;;;;3.03;1.30;;;;;;;15.78;100.00;101681.84;5026479;28;20033;-78
2023/05/13 09:28:08;;;;;;;2.22;1.80;;;;;;;15.80;100.00;101666.50;5042494;28;20060;-77
2023/05/13 09:30:44;;;;;;;2.25;1.20;;;;;;;15.88;100.00;101665.78;5048923;28;20029;-78
2023/05/13 09:33:18;;;;;;;3.15;0.70;;;;;;;15.89;100.00;101667.47;5047594;28;20029;-78
2023/05/13 09:35:51;;;;;;;1.65;0.90;;;;;;;15.89;100.00;101656.81;5033910;28;20443;-78
2023/05/13 09:38:30;;;;;;;1.10;0.30;;;;;;;15.99;100.00;101662.09;5039929;28;20033;-79
2023/05/13 09:41:00;;;;;;;0.85;0.30;;;;;;;16.10;100.00;101656.53;5045428;28;20029;-78
2023/05/13 09:43:32;;;;;;;0.88;0.60;;;;;;;16.21;100.00;101652.00;5048263;28;20033;-78
2023/05/13 09:46:08;;;;;;;1.58;0.43;;;;;;;16.27;100.00;101654.03;5060217;28;20057;-78
2023/05/13 09:48:43;;;;;;;0.30;0.25;;;;;;;16.30;100.00;101655.56;5047674;28;20094;-79
2023/05/13 09:51:15;;;;;;;0.30;0.30;;;;;;;16.43;100.00;101655.19;5045691;28;20044;-79
2023/05/13 09:53:47;;;;;;;1.05;0.38;;;;;;;16.46;100.00;101652.19;5032457;28;20033;-79
2023/05/13 09:56:23;;;;;;;1.27;0.20;;;;;;;16.53;100.00;101652.44;5028399;28;20558;-82
2023/05/13 09:58:53;;;;;;;0.35;0.15;;;;;;;16.65;100.00;101650.34;5043008;28;20034;-82
2023/05/13 10:01:23;;;;;;;0.70;0.10;;;;;;;16.71;100.00;101642.56;5051488;28;20025;-79
2023/05/13 10:03:55;;;;;;;0.10;0.10;;;;;;;16.76;100.00;101646.59;5025407;28;20123;-79
2023/05/13 10:06:29;;;;;;;0.38;0.20;;;;;;;16.84;100.00;101649.31;5047369;28;20086;-79
2023/05/13 10:09:02;;;;;;;0.10;0.10;;;;;;;16.94;100.00;101650.06;5047275;28;20537;-79
2023/05/13 10:11:35;;;;;;;0.20;0.20;;;;;;;17.01;100.00;101644.09;5048555;28;20123;-79
2023/05/13 10:14:06;;;;;;;0.20;0.20;;;;;;;17.04;100.00;101644.59;5050762;28;20036;-79
2023/05/13 10:16:35;;;;;;;0.20;0.10;;;;;;;17.13;100.00;101644.69;5031329;28;20033;-79
2023/05/13 10:19:03;;;;;;;0.35;0.28;;;;;;;17.23;100.00;101640.91;5044199;28;20036;-79
2023/05/13 10:21:32;;;;;;;0.00;0.00;;;;;;;17.35;100.00;101633.47;5019583;28;20037;-79
2023/05/13 10:24:00;;;;;;;0.47;0.10;;;;;;;17.34;100.00;101628.28;5059470;28;20033;-79
2023/05/13 10:26:28;;;;;;;0.38;0.10;;;;;;;17.34;100.00;101631.75;5030897;28;20037;-79
2023/05/13 10:28:58;;;;;;;0.13;0.10;;;;;;;17.43;100.00;101634.47;5048083;28;20056;-79
2023/05/13 10:31:27;;;;;;;0.10;0.10;;;;;;;17.37;100.00;101633.28;5046707;28;20029;-79
2023/05/13 10:33:55;;;;;;;0.50;0.10;;;;;;;17.39;100.00;101631.28;5041248;28;20108;-79
2023/05/13 10:36:58;;;;;;;0.60;0.20;;;;;;;17.46;99.92;101624.31;5042326;28;20680;-79
2023/05/13 10:40:04;;;;;;;0.17;0.10;;;;;;;17.45;98.70;101621.78;5063016;28;20037;-79
2023/05/13 10:42:40;;;;;;;;;;;;;;;17.40;100.00;101627.63;5039110;28;20029;-80
2023/05/13 10:45:09;;;;;;;0.40;0.10;;;;;;;17.55;100.00;101622.50;5031428;28;20267;-79
2023/05/13 10:47:38;;;;;;;0.30;0.30;;;;;;;17.65;100.00;101616.16;5048838;28;20025;-79
2023/05/13 10:50:23;;;;;;;0.10;0.10;;;;;;;17.81;98.49;101618.06;5029100;28;20052;-79
2023/05/13 10:52:57;;;;;;;0.30;0.20;;;;;;;17.91;98.81;101628.63;5028906;28;20033;-79
2023/05/13 10:55:27;;;;;;;0.68;0.20;;;;;;;17.97;98.40;101619.94;5056498;28;20045;-79
2023/05/13 10:58:14;;;;;;;0.17;0.10;;;;;;;18.15;96.60;101616.31;5043471;28;20033;-79
2023/05/13 11:00:45;;;;;;;1.23;0.10;;;;;;;18.27;95.95;101616.84;5021258;28;20052;-79
2023/05/13 11:03:18;;;;;;;0.65;0.20;;;;;;;18.39;93.48;101620.00;5024317;28;20033;-80
2023/05/13 11:06:38;;;;;;;0.10;0.10;;;;;;;18.50;86.92;101621.50;5040969;28;20025;-80
2023/05/13 11:09:13;;;;;;;0.10;0.10;;;;;;;18.62;88.78;101616.66;5026443;28;20473;-79
2023/05/13 11:11:47;;;;;;;0.22;0.10;;;;;;;18.67;85.95;101615.13;5038131;28;20171;-80
2023/05/13 11:14:23;;;;;;;0.40;0.10;;;;;;;18.77;85.27;101614.09;5045650;28;20082;-79
2023/05/13 11:17:03;;;;;;;2.63;0.00;;;;;;;18.91;79.74;101616.09;5046510;28;20091;-79
2023/05/13 11:19:36;;;;;;;0.30;0.10;;;;;;;18.99;79.65;101625.09;5020721;28;20024;-79
2023/05/13 11:22:15;;;;;;;0.52;0.00;;;;;;;19.05;74.41;101614.53;5043487;28;20025;-79
2023/05/13 11:25:07;;;;;;;0.22;0.10;;;;;;;19.11;72.90;101622.94;5042783;28;20016;-79
2023/05/13 11:27:39;;;;;;;1.42;0.10;;;;;;;19.12;69.54;101621.91;5034528;28;20132;-79
2023/05/13 11:30:22;;;;;;;0.15;0.10;;;;;;;19.18;63.66;101618.53;5038971;28;20098;-79
2023/05/13 11:32:56;;;;;;;1.77;0.10;;;;;;;19.24;65.06;101619.72;5041518;28;20045;-79
2023/05/13 11:35:28;;;;;;;0.17;0.10;;;;;;;19.26;64.13;101612.31;5040584;28;20044;-79